createdAt,value
2017-04-27T00:01:01.931Z,10.54
2017-04-27T00:03:28.907Z,10.32
2017-04-27T00:05:56.629Z,10.44
2017-04-27T00:08:23.990Z,10.08
2017-04-27T00:10:50.976Z,9.00
2017-04-27T00:13:18.801Z,10.28
2017-04-27T00:15:46.252Z,8.38
2017-04-27T00:18:13.263Z,9.94
2017-04-27T00:20:40.245Z,10.42
2017-04-27T00:23:07.606Z,9.98
2017-04-27T00:25:34.619Z,10.74
2017-04-27T00:28:01.621Z,10.38
2017-04-27T00:30:28.911Z,11.36
2017-04-27T00:32:55.928Z,12.40
2017-04-27T00:35:22.944Z,12.64
2017-04-27T00:37:50.526Z,9.66
2017-04-27T00:40:17.531Z,11.24
2017-04-27T00:42:44.540Z,11.44
2017-04-27T00:45:11.966Z,12.68
2017-04-27T00:47:38.956Z,14.18
2017-04-27T00:50:06.683Z,11.50
2017-04-27T00:52:34.027Z,13.08
2017-04-27T00:55:01.030Z,13.56
2017-04-27T00:57:28.045Z,13.58
2017-04-27T00:59:55.416Z,14.04
2017-04-27T01:02:22.409Z,13.04
2017-04-27T01:04:49.469Z,12.72
2017-04-27T01:07:35.849Z,12.66
2017-04-27T01:10:02.824Z,14.48
2017-04-27T01:12:30.756Z,13.84
2017-04-27T01:14:58.149Z,13.54
2017-04-27T01:17:25.148Z,16.66
2017-04-27T01:19:52.900Z,14.64
2017-04-27T01:22:20.208Z,17.56
2017-04-27T01:24:47.196Z,33.12
2017-04-27T01:27:14.928Z,31.74
2017-04-27T01:29:42.273Z,20.16
2017-04-27T01:32:09.273Z,21.94
2017-04-27T01:34:36.969Z,23.34
2017-04-27T01:37:04.332Z,22.60
2017-04-27T01:39:31.340Z,28.16
2017-04-27T01:41:58.321Z,25.34
2017-04-27T01:44:25.687Z,21.14
2017-04-27T01:46:52.683Z,26.00
2017-04-27T01:49:20.425Z,28.16
2017-04-27T01:51:47.836Z,24.68
2017-04-27T01:54:14.831Z,22.22
2017-04-27T01:56:41.799Z,19.52
2017-04-27T01:59:09.208Z,17.26
2017-04-27T02:01:36.201Z,15.70
2017-04-27T02:04:03.937Z,15.64
2017-04-27T02:06:31.224Z,14.40
2017-04-27T02:08:58.984Z,12.92
2017-04-27T02:11:26.712Z,14.60
2017-04-27T02:13:54.047Z,13.36
2017-04-27T02:16:21.040Z,13.48
2017-04-27T02:18:48.031Z,12.40
2017-04-27T02:21:15.505Z,14.56
2017-04-27T02:23:42.503Z,14.16
2017-04-27T02:26:10.238Z,13.12
2017-04-27T02:28:37.567Z,12.02
2017-04-27T02:31:04.581Z,12.54
2017-04-27T02:33:31.553Z,12.60
2017-04-27T02:35:58.901Z,11.92
2017-04-27T02:38:25.892Z,14.74
2017-04-27T02:40:52.869Z,11.84
2017-04-27T02:43:20.162Z,11.56
2017-04-27T02:45:47.151Z,14.94
2017-04-27T02:48:14.118Z,12.00
2017-04-27T02:50:41.607Z,16.42
2017-04-27T02:53:08.675Z,14.80
2017-04-27T02:55:35.687Z,15.20
2017-04-27T02:58:02.951Z,17.28
2017-04-27T03:00:29.940Z,16.42
2017-04-27T03:02:56.909Z,15.16
2017-04-27T03:05:24.283Z,15.18
2017-04-27T03:07:51.231Z,17.92
2017-04-27T03:10:18.226Z,19.94
2017-04-27T03:12:45.567Z,21.50
2017-04-27T03:15:12.708Z,29.00
2017-04-27T03:17:39.697Z,22.36
2017-04-27T03:20:06.995Z,23.30
2017-04-27T03:22:34.005Z,24.32
2017-04-27T03:25:01.760Z,24.76
2017-04-27T03:27:28.992Z,22.46
2017-04-27T03:29:55.950Z,21.10
2017-04-27T03:32:23.693Z,21.60
2017-04-27T03:34:51.120Z,17.56
2017-04-27T03:37:18.124Z,21.44
2017-04-27T03:39:45.089Z,18.56
2017-04-27T03:42:13.138Z,18.42
2017-04-27T03:44:40.152Z,16.74
2017-04-27T03:47:07.192Z,16.22
2017-04-27T03:49:34.561Z,16.78
2017-04-27T03:52:01.568Z,17.46
2017-04-27T03:54:28.580Z,16.66
2017-04-27T03:56:56.724Z,16.00
2017-04-27T03:59:23.777Z,14.92
2017-04-27T04:01:50.753Z,18.44
2017-04-27T04:04:18.993Z,19.52
2017-04-27T04:06:45.972Z,15.38
2017-04-27T04:09:13.707Z,15.56
2017-04-27T04:11:40.994Z,15.88
2017-04-27T04:14:08.729Z,12.40
2017-04-27T04:16:35.747Z,15.98
2017-04-27T04:19:03.216Z,18.02
2017-04-27T04:21:30.204Z,14.00
2017-04-27T04:23:57.217Z,13.16
2017-04-27T04:26:24.605Z,14.18
2017-04-27T04:28:52.382Z,14.62
2017-04-27T04:31:19.870Z,18.06
2017-04-27T04:33:47.466Z,15.22
2017-04-27T04:36:14.428Z,15.16
2017-04-27T04:38:41.425Z,15.06
2017-04-27T04:41:08.832Z,15.70
2017-04-27T04:43:36.567Z,14.44
2017-04-27T04:46:03.847Z,13.82
2017-04-27T04:48:32.072Z,13.54
2017-04-27T04:50:59.097Z,17.08
2017-04-27T04:53:26.848Z,13.50
2017-04-27T04:55:54.996Z,14.52
2017-04-27T04:58:21.986Z,15.14
2017-04-27T05:00:49.783Z,14.86
2017-04-27T05:03:17.267Z,15.58
2017-04-27T05:05:44.313Z,14.54
2017-04-27T05:08:11.281Z,16.02
2017-04-27T05:10:38.590Z,15.38
2017-04-27T05:13:05.559Z,14.68
2017-04-27T05:15:32.576Z,13.92
2017-04-27T05:18:00.068Z,17.08
2017-04-27T05:20:27.104Z,17.98
2017-04-27T05:22:54.117Z,18.80
2017-04-27T05:25:21.492Z,17.32
2017-04-27T05:27:48.473Z,19.92
2017-04-27T05:30:15.537Z,15.86
2017-04-27T05:32:43.680Z,12.98
2017-04-27T05:35:10.744Z,17.26
2017-04-27T05:37:37.753Z,19.40
2017-04-27T05:40:05.231Z,20.06
2017-04-27T05:42:32.302Z,18.88
2017-04-27T05:45:00.058Z,18.48
2017-04-27T05:47:27.444Z,23.30
2017-04-27T05:49:54.465Z,24.54
2017-04-27T05:52:21.700Z,24.50
2017-04-27T05:54:49.162Z,27.72
2017-04-27T05:57:16.202Z,30.78
2017-04-27T05:59:43.290Z,28.58
2017-04-27T06:02:10.706Z,24.80
2017-04-27T06:04:37.740Z,26.88
2017-04-27T06:07:04.748Z,24.90
2017-04-27T06:09:32.244Z,26.80
2017-04-27T06:11:59.313Z,25.86
2017-04-27T06:14:26.321Z,24.47
2017-04-27T06:16:53.677Z,22.40
2017-04-27T06:19:20.668Z,24.26
2017-04-27T06:21:48.695Z,24.70
2017-04-27T06:24:16.042Z,25.76
2017-04-27T06:26:43.052Z,24.88
2017-04-27T06:29:10.861Z,25.08
2017-04-27T06:31:38.222Z,22.80
2017-04-27T06:34:05.359Z,23.58
2017-04-27T06:36:32.350Z,25.42
2017-04-27T06:39:00.488Z,24.56
2017-04-27T06:41:27.531Z,22.20
2017-04-27T06:43:54.541Z,22.62
2017-04-27T06:46:21.916Z,17.46
2017-04-27T06:48:48.949Z,17.62
2017-04-27T06:51:15.960Z,14.34
2017-04-27T06:53:44.085Z,15.24
2017-04-27T06:56:11.084Z,13.92
2017-04-27T06:58:38.109Z,14.04
2017-04-27T07:01:05.533Z,14.10
2017-04-27T07:03:32.601Z,14.04
2017-04-27T07:05:59.590Z,15.22
2017-04-27T07:08:26.917Z,13.64
2017-04-27T07:10:53.916Z,13.62
2017-04-27T07:13:20.895Z,13.96
2017-04-27T07:15:48.279Z,12.22
2017-04-27T07:18:15.343Z,12.12
2017-04-27T07:20:43.079Z,12.22
2017-04-27T07:23:10.527Z,10.22
2017-04-27T07:25:37.516Z,9.66
2017-04-27T07:28:04.541Z,10.76
2017-04-27T07:30:31.844Z,10.94
2017-04-27T07:32:58.846Z,9.94
2017-04-27T07:37:33.003Z,10.80
2017-04-27T07:40:00.047Z,11.46
2017-04-27T07:42:27.067Z,8.72
2017-04-27T07:44:55.308Z,9.80
2017-04-27T07:47:22.344Z,9.48
2017-04-27T07:49:49.374Z,9.20
2017-04-27T07:52:16.748Z,8.00
2017-04-27T07:54:43.728Z,7.92
2017-04-27T07:57:10.745Z,7.62
2017-04-27T07:59:38.118Z,4.98
2017-04-27T08:02:05.153Z,5.66
2017-04-27T08:04:32.177Z,4.54
2017-04-27T08:06:59.648Z,5.82
2017-04-27T08:09:26.644Z,5.90
2017-04-27T08:11:54.425Z,6.10
2017-04-27T08:14:21.815Z,4.06
2017-04-27T08:16:48.836Z,4.64
2017-04-27T08:19:15.813Z,3.90
2017-04-27T08:21:44.171Z,4.34
2017-04-27T08:24:11.187Z,4.88
2017-04-27T08:26:38.914Z,3.80
2017-04-27T08:29:06.364Z,3.32
2017-04-27T08:31:33.393Z,5.28
2017-04-27T08:34:00.459Z,4.22
2017-04-27T08:36:27.902Z,3.88
2017-04-27T08:38:54.948Z,2.58
2017-04-27T08:41:21.969Z,2.76
2017-04-27T08:43:49.366Z,6.08
2017-04-27T08:46:16.440Z,3.68
2017-04-27T08:48:43.420Z,4.26
2017-04-27T08:51:10.793Z,3.10
2017-04-27T08:53:38.069Z,3.30
2017-04-27T08:56:05.878Z,2.24
2017-04-27T08:58:32.947Z,2.30
2017-04-27T09:01:00.014Z,3.40
2017-04-27T09:03:27.097Z,3.38
2017-04-27T09:05:54.913Z,3.10
2017-04-27T09:08:22.022Z,2.98
2017-04-27T09:10:49.072Z,2.42
2017-04-27T09:13:16.431Z,2.96
2017-04-27T09:15:43.625Z,2.96
2017-04-27T09:18:11.444Z,4.12
2017-04-27T09:20:38.877Z,3.40
2017-04-27T09:23:06.743Z,3.74
2017-04-27T09:25:34.561Z,2.62
2017-04-27T09:28:01.978Z,2.96
2017-04-27T09:30:29.737Z,2.80
2017-04-27T09:32:57.515Z,4.16
2017-04-27T09:35:24.887Z,4.88
2017-04-27T09:37:51.971Z,4.10
2017-04-27T09:40:19.027Z,4.82
2017-04-27T09:42:46.488Z,3.58
2017-04-27T09:46:07.578Z,3.90
2017-04-27T09:48:35.088Z,2.22
2017-04-27T09:51:02.144Z,1.66
2017-04-27T09:53:29.929Z,2.58
2017-04-27T09:55:57.331Z,3.58
2017-04-27T09:58:24.384Z,2.82
2017-04-27T10:00:51.431Z,4.12
2017-04-27T10:03:19.816Z,2.10
2017-04-27T10:05:47.600Z,2.58
2017-04-27T10:08:15.363Z,4.20
2017-04-27T10:10:42.798Z,1.52
2017-04-27T10:13:09.844Z,2.66
2017-04-27T10:15:36.900Z,2.48
2017-04-27T10:18:04.324Z,2.52
2017-04-27T10:20:31.501Z,2.14
2017-04-27T10:22:58.566Z,3.74
2017-04-27T10:25:26.716Z,3.82
2017-04-27T10:27:53.782Z,3.82
2017-04-27T10:30:20.922Z,2.76
2017-04-27T10:32:48.304Z,3.50
2017-04-27T10:35:16.168Z,2.86
2017-04-27T10:37:43.207Z,4.34
2017-04-27T10:40:11.391Z,5.58
2017-04-27T10:42:38.449Z,2.70
2017-04-27T10:45:05.496Z,2.98
2017-04-27T10:47:32.852Z,3.12
2017-04-27T10:49:59.892Z,2.80
2017-04-27T10:52:26.951Z,3.94
2017-04-27T10:54:54.348Z,3.60
2017-04-27T10:57:21.384Z,3.88
2017-04-27T10:59:48.417Z,3.98
2017-04-27T11:02:16.029Z,2.10
2017-04-27T11:04:43.089Z,3.22
2017-04-27T11:07:10.151Z,3.34
2017-04-27T11:09:37.548Z,3.80
2017-04-27T11:12:04.597Z,4.00
2017-04-27T11:14:31.600Z,2.22
2017-04-27T11:16:59.312Z,6.22
2017-04-27T11:19:27.137Z,3.42
2017-04-27T11:21:54.162Z,3.28
2017-04-27T11:24:22.325Z,2.40
2017-04-27T11:26:49.349Z,3.22
2017-04-27T11:29:16.408Z,2.36
2017-04-27T11:31:44.198Z,2.50
2017-04-27T11:34:11.216Z,3.90
2017-04-27T11:36:49.301Z,4.72
2017-04-27T11:39:05.817Z,3.22
2017-04-27T11:41:32.843Z,2.58
2017-04-27T11:44:00.470Z,2.56
2017-04-27T11:46:27.885Z,3.00
2017-04-27T11:48:54.914Z,2.50
2017-04-27T11:51:21.994Z,2.36
2017-04-27T11:53:50.299Z,2.10
2017-04-27T11:56:17.344Z,1.38
2017-04-27T11:58:44.389Z,3.02
2017-04-27T12:01:12.549Z,1.72
2017-04-27T12:03:39.576Z,2.72
2017-04-27T12:06:06.577Z,4.46
2017-04-27T12:08:33.980Z,3.38
2017-04-27T12:11:00.998Z,5.18
2017-04-27T12:13:28.187Z,5.72
2017-04-27T12:15:56.366Z,5.18
2017-04-27T12:18:23.481Z,3.62
2017-04-27T12:20:50.516Z,5.46
2017-04-27T12:23:18.001Z,3.40
2017-04-27T12:25:45.017Z,1.84
2017-04-27T12:28:12.036Z,3.68
2017-04-27T12:30:40.189Z,4.10
2017-04-27T12:33:07.974Z,3.44
2017-04-27T12:35:35.756Z,3.84
2017-04-27T12:38:03.464Z,3.60
2017-04-27T12:40:31.261Z,1.96
2017-04-27T12:42:58.293Z,1.98
2017-04-27T12:45:25.684Z,2.62
2017-04-27T12:47:52.716Z,2.20
2017-04-27T12:50:19.756Z,1.90
2017-04-27T12:52:48.013Z,3.44
2017-04-27T12:55:15.048Z,2.82
2017-04-27T12:57:42.114Z,3.16
2017-04-27T13:00:10.374Z,3.66
2017-04-27T13:02:37.405Z,2.68
2017-04-27T13:05:04.485Z,4.44
2017-04-27T13:07:32.452Z,3.76
2017-04-27T13:09:59.521Z,2.60
2017-04-27T13:12:27.276Z,2.76
2017-04-27T13:14:54.730Z,6.18
2017-04-27T13:17:28.823Z,2.00
2017-04-27T13:19:56.209Z,2.24
2017-04-27T13:22:23.248Z,2.82
2017-04-27T13:24:50.267Z,4.88
2017-04-27T13:27:17.604Z,2.20
2017-04-27T13:29:44.627Z,3.00
2017-04-27T13:32:12.369Z,2.44
2017-04-27T13:34:39.918Z,3.92
2017-04-27T13:37:06.946Z,3.48
2017-04-27T13:39:33.935Z,3.40
2017-04-27T13:42:02.064Z,2.12
2017-04-27T13:44:44.060Z,3.18
2017-04-27T13:47:11.548Z,2.92
2017-04-27T13:49:38.563Z,4.86
2017-04-27T13:52:05.580Z,3.58
2017-04-27T13:54:32.965Z,3.48
2017-04-27T13:56:59.958Z,5.52
2017-04-27T13:59:26.950Z,2.54
2017-04-27T14:01:54.319Z,4.58
2017-04-27T14:04:21.352Z,3.30
2017-04-27T14:06:48.353Z,2.24
2017-04-27T14:09:15.697Z,2.92
2017-04-27T14:11:43.094Z,3.84
2017-04-27T14:14:10.190Z,2.96
2017-04-27T14:16:37.661Z,2.86
2017-04-27T14:19:04.683Z,3.26
2017-04-27T14:21:31.670Z,4.18
2017-04-27T14:23:58.998Z,2.62
2017-04-27T14:26:26.035Z,2.02
2017-04-27T14:28:53.088Z,3.54
2017-04-27T14:31:20.551Z,2.98
2017-04-27T14:33:47.594Z,3.62
2017-04-27T14:36:14.620Z,3.70
2017-04-27T14:38:41.990Z,4.16
2017-04-27T14:41:08.988Z,4.42
2017-04-27T14:43:36.758Z,2.92
2017-04-27T14:46:04.145Z,3.20
2017-04-27T14:48:31.179Z,3.00
2017-04-27T14:50:58.190Z,4.20
2017-04-27T14:53:26.339Z,2.96
2017-04-27T14:55:53.345Z,2.80
2017-04-27T14:58:20.371Z,2.74
2017-04-27T15:00:48.585Z,2.46
2017-04-27T15:03:15.739Z,3.26
2017-04-27T15:05:42.769Z,5.28
2017-04-27T15:08:10.224Z,2.64
2017-04-27T15:10:37.222Z,2.70
2017-04-27T15:13:04.198Z,2.96
2017-04-27T15:15:31.563Z,1.74
2017-04-27T15:17:58.580Z,3.24
2017-04-27T15:20:25.596Z,2.30
2017-04-27T15:22:53.018Z,3.12
2017-04-27T15:25:20.069Z,3.62
2017-04-27T15:27:47.399Z,3.44
2017-04-27T15:30:14.896Z,3.56
2017-04-27T15:32:42.664Z,2.36
2017-04-27T15:35:10.400Z,2.12
2017-04-27T15:37:37.876Z,3.38
2017-04-27T15:40:05.652Z,2.86
2017-04-27T15:42:33.401Z,2.40
2017-04-27T15:45:00.848Z,3.54
2017-04-27T15:47:27.846Z,3.70
2017-04-27T15:49:54.832Z,3.80
2017-04-27T15:52:22.199Z,3.00
2017-04-27T15:54:49.199Z,3.76
2017-04-27T15:57:16.216Z,4.22
2017-04-27T15:59:44.555Z,3.68
2017-04-27T16:02:11.554Z,4.56
2017-04-27T16:04:38.572Z,3.86
2017-04-27T16:07:05.987Z,2.96
2017-04-27T16:09:33.788Z,3.02
2017-04-27T16:12:00.809Z,4.32
2017-04-27T16:14:28.228Z,4.38
2017-04-27T16:16:55.225Z,5.10
2017-04-27T16:19:23.009Z,5.48
2017-04-27T16:21:50.411Z,6.54
2017-04-27T16:24:17.772Z,3.54
2017-04-27T16:26:44.892Z,3.36
2017-04-27T16:29:12.265Z,4.46
2017-04-27T16:31:39.285Z,3.58
2017-04-27T16:34:06.289Z,3.54
2017-04-27T16:36:34.423Z,5.30
2017-04-27T16:39:01.429Z,4.54
2017-04-27T16:41:28.511Z,3.54
2017-04-27T16:43:56.063Z,3.68
2017-04-27T16:46:23.093Z,3.96
2017-04-27T16:48:50.129Z,4.00
2017-04-27T16:51:17.616Z,3.64
2017-04-27T16:53:44.667Z,4.18
2017-04-27T16:56:11.729Z,2.82
2017-04-27T16:58:39.118Z,2.50
2017-04-27T17:01:06.184Z,2.88
2017-04-27T17:03:33.206Z,3.94
2017-04-27T17:06:00.716Z,3.10
2017-04-27T17:08:28.527Z,4.32
2017-04-27T17:10:55.581Z,3.12
2017-04-27T17:13:22.962Z,5.48
2017-04-27T17:15:49.996Z,3.50
2017-04-27T17:18:17.003Z,3.46
2017-04-27T17:20:44.387Z,3.66
2017-04-27T17:23:11.412Z,3.84
2017-04-27T17:25:38.416Z,3.22
2017-04-27T17:28:05.841Z,3.02
2017-04-27T17:30:32.866Z,3.36
2017-04-27T17:33:00.561Z,3.28
2017-04-27T17:35:27.903Z,2.82
2017-04-27T17:37:54.915Z,5.02
2017-04-27T17:40:21.877Z,2.74
2017-04-27T17:42:49.234Z,3.26
2017-04-27T17:45:16.390Z,4.76
2017-04-27T17:47:43.436Z,5.66
2017-04-27T17:50:10.906Z,4.76
2017-04-27T17:52:37.922Z,4.08
2017-04-27T17:55:04.965Z,4.14
2017-04-27T17:57:32.332Z,4.86
2017-04-27T17:59:59.352Z,3.66
2017-04-27T18:02:26.381Z,3.92
2017-04-27T18:04:53.754Z,4.22
2017-04-27T18:07:20.821Z,4.48
2017-04-27T18:09:47.849Z,2.60
2017-04-27T18:12:14.856Z,4.30
2017-04-27T18:14:41.900Z,5.22
2017-04-27T18:17:09.677Z,3.30
2017-04-27T18:19:36.724Z,3.68
2017-04-27T18:22:04.506Z,3.42
2017-04-27T18:24:31.857Z,4.20
2017-04-27T18:26:58.884Z,4.00
2017-04-27T18:29:25.936Z,4.84
2017-04-27T18:31:52.989Z,4.16
2017-04-27T18:34:20.029Z,5.04
2017-04-27T18:36:47.093Z,3.60
2017-04-27T18:39:14.108Z,3.80
2017-04-27T18:41:42.244Z,2.44
2017-04-27T18:44:09.293Z,3.08
2017-04-27T18:46:36.333Z,3.32
2017-04-27T18:49:03.405Z,4.86
2017-04-27T18:51:38.644Z,3.06
2017-04-27T18:54:06.404Z,4.52
2017-04-27T18:56:33.452Z,5.50
2017-04-27T18:59:00.772Z,3.80
2017-04-27T19:01:27.784Z,6.36
2017-04-27T19:03:54.807Z,3.66
2017-04-27T19:06:22.597Z,3.22
2017-04-27T19:08:49.612Z,3.14
2017-04-27T19:11:17.430Z,4.94
2017-04-27T19:13:44.605Z,3.98
2017-04-27T19:16:12.074Z,3.66
2017-04-27T19:18:39.177Z,3.60
2017-04-27T19:21:06.240Z,3.24
2017-04-27T19:23:33.311Z,3.68
2017-04-27T19:26:00.297Z,3.94
2017-04-27T19:28:27.298Z,3.86
2017-04-27T19:30:54.297Z,3.02
2017-04-27T19:33:23.227Z,3.36
2017-04-27T19:35:52.131Z,4.04
2017-04-27T19:38:19.140Z,4.12
2017-04-27T19:40:46.215Z,4.56
2017-04-27T19:43:13.219Z,5.50
2017-04-27T19:45:40.987Z,7.08
2017-04-27T19:48:08.752Z,4.80
2017-04-27T19:50:36.859Z,4.26
2017-04-27T19:53:03.917Z,4.34
2017-04-27T19:55:30.928Z,5.00
2017-04-27T19:57:57.937Z,6.78
2017-04-27T20:00:24.991Z,4.90
2017-04-27T20:02:52.225Z,4.38
2017-04-27T20:05:19.231Z,4.30
2017-04-27T20:07:46.603Z,5.46
2017-04-27T20:10:13.620Z,3.48
2017-04-27T20:12:40.654Z,5.48
2017-04-27T20:15:08.453Z,4.20
2017-04-27T20:17:35.444Z,5.80
2017-04-27T20:20:02.501Z,5.26
2017-04-27T20:22:29.516Z,3.80
2017-04-27T20:24:56.870Z,5.02
2017-04-27T20:27:23.885Z,3.60
2017-04-27T20:29:50.898Z,7.84
2017-04-27T20:32:18.684Z,4.16
2017-04-27T20:34:45.778Z,3.86
2017-04-27T20:37:12.834Z,4.92
2017-04-27T20:39:40.653Z,4.70
2017-04-27T20:42:08.051Z,4.48
2017-04-27T20:44:35.840Z,4.92
2017-04-27T20:47:03.655Z,5.64
2017-04-27T20:49:30.735Z,3.86
2017-04-27T20:51:57.814Z,4.28
2017-04-27T20:54:24.881Z,3.76
2017-04-27T20:56:51.899Z,13.60
2017-04-27T20:59:19.979Z,6.58
2017-04-27T21:01:47.031Z,3.88
2017-04-27T21:04:14.049Z,8.38
2017-04-27T21:06:41.227Z,5.86
2017-04-27T21:09:08.305Z,5.28
2017-04-27T21:11:35.476Z,4.62
2017-04-27T21:14:02.492Z,5.32
2017-04-27T21:16:29.805Z,4.40
2017-04-27T21:18:57.023Z,5.32
2017-04-27T21:21:24.089Z,5.20
2017-04-27T21:23:51.874Z,3.94
2017-04-27T21:26:19.652Z,5.48
2017-04-27T21:28:46.681Z,7.30
2017-04-27T21:31:14.459Z,5.78
2017-04-27T21:33:41.504Z,5.28
2017-04-27T21:36:09.657Z,4.62
2017-04-27T21:38:36.704Z,5.96
2017-04-27T21:41:03.723Z,4.58
2017-04-27T21:43:30.762Z,5.06
2017-04-27T21:45:57.806Z,3.86
2017-04-27T21:48:24.864Z,4.64
2017-04-27T21:50:51.982Z,5.10
2017-04-27T21:53:19.470Z,4.52
2017-04-27T21:55:46.508Z,4.94
2017-04-27T21:58:13.532Z,4.20
2017-04-27T22:00:40.628Z,3.28
2017-04-27T22:03:07.675Z,4.08
2017-04-27T22:05:34.697Z,3.74
2017-04-27T22:08:01.732Z,5.02
2017-04-27T22:10:29.243Z,5.78
2017-04-27T22:12:56.292Z,4.54
2017-04-27T22:15:23.373Z,4.78
2017-04-27T22:17:50.449Z,4.76
2017-04-27T22:20:17.836Z,5.90
2017-04-27T22:22:45.681Z,4.36
2017-04-27T22:25:12.772Z,4.74
2017-04-27T22:27:40.145Z,4.42
2017-04-27T22:30:07.932Z,5.86
2017-04-27T22:32:34.968Z,3.50
2017-04-27T22:35:02.024Z,4.26
2017-04-27T22:37:29.054Z,4.94
2017-04-27T22:39:56.910Z,4.44
2017-04-27T22:42:24.680Z,6.62
2017-04-27T22:44:52.771Z,3.82
2017-04-27T22:47:19.808Z,4.00
2017-04-27T22:49:47.574Z,5.74
2017-04-27T22:52:15.337Z,3.98
2017-04-27T22:54:42.370Z,4.00
2017-04-27T22:57:09.377Z,6.10
2017-04-27T22:59:36.389Z,5.28
2017-04-27T23:02:03.517Z,5.44
2017-04-27T23:04:30.619Z,3.78
2017-04-27T23:06:58.024Z,6.24
2017-04-27T23:09:25.890Z,3.30
2017-04-27T23:11:53.661Z,6.32
2017-04-27T23:14:20.729Z,4.76
2017-04-27T23:16:47.783Z,3.62
2017-04-27T23:19:14.831Z,5.14
2017-04-27T23:21:41.861Z,3.72
2017-04-27T23:24:10.006Z,4.44
2017-04-27T23:26:37.043Z,4.04
2017-04-27T23:29:04.049Z,4.12
2017-04-27T23:31:31.353Z,3.60
2017-04-27T23:33:58.376Z,5.46
2017-04-27T23:36:25.772Z,3.92
2017-04-27T23:38:53.567Z,5.06
2017-04-27T23:41:20.604Z,4.84
2017-04-27T23:43:47.644Z,3.46
2017-04-27T23:46:15.394Z,4.26
2017-04-27T23:48:43.573Z,4.24
2017-04-27T23:51:10.620Z,5.48
2017-04-27T23:53:37.647Z,3.52
2017-04-27T23:56:04.719Z,3.84
2017-04-27T23:58:32.481Z,5.40
